Arctic Bay, Canada
Current Conditions -  °F | °C
As of 5:00 PM on Tuesday 27 Jan 2015 (Local Time) from CYIO Reporting Station
Light Snow Light Snow  
Wind Chill: -58°   Ceiling: Unl
Heat Index: -35°   Visibility: 15mi
Dew Point: -42°   Wind: 9mph
Humidity: 68%   Direction: 160°SSE
Pressure: 29.81"   Gusts: NA
Location:  73.03°N, 85.17°W
Report Text: CYIO 272300Z 16008KT 15SM -SN SCT036 SCT250 M37/M41 A2981 RMK SC3CC1 FROIN SLP108
Loading
Personal Weather Stations






























Interactive Weather Map New forecast layout! Learn more

10-Day Weather Forecast

Advertisements
Track Severe Weather on mobile